createdAt,value
2019-03-30T00:02:28.814Z,10.18
2019-03-30T00:05:03.713Z,10.13
2019-03-30T00:07:36.024Z,10.03
2019-03-30T00:10:09.967Z,10.01
2019-03-30T00:12:42.239Z,10.03
2019-03-30T00:15:14.515Z,10.05
2019-03-30T00:17:47.210Z,9.88
2019-03-30T00:20:19.852Z,9.90
2019-03-30T00:22:52.145Z,9.93
2019-03-30T00:25:24.438Z,9.81
2019-03-30T00:27:56.742Z,9.71
2019-03-30T00:30:29.003Z,9.68
2019-03-30T00:33:01.256Z,9.54
2019-03-30T00:35:33.625Z,9.51
2019-03-30T00:38:05.900Z,9.51
2019-03-30T00:40:38.590Z,9.55
2019-03-30T00:43:10.843Z,9.56
2019-03-30T00:45:43.107Z,9.71
2019-03-30T00:48:15.417Z,9.57
2019-03-30T00:50:47.688Z,9.36
2019-03-30T00:53:19.951Z,9.24
2019-03-30T00:55:52.251Z,9.25
2019-03-30T00:58:25.796Z,9.21
2019-03-30T01:00:58.294Z,9.07
2019-03-30T01:03:30.585Z,8.96
2019-03-30T01:06:02.851Z,8.93
2019-03-30T01:08:35.250Z,8.94
2019-03-30T01:11:08.741Z,8.99
2019-03-30T01:13:41.504Z,8.84
2019-03-30T01:16:13.881Z,8.82
2019-03-30T01:18:46.137Z,8.65
2019-03-30T01:21:18.430Z,8.80
2019-03-30T01:23:50.852Z,8.91
2019-03-30T01:26:23.112Z,8.84
2019-03-30T01:28:55.426Z,8.79
2019-03-30T01:31:27.723Z,8.70
2019-03-30T01:33:59.983Z,8.63
2019-03-30T01:36:32.291Z,8.69
2019-03-30T01:39:05.853Z,8.84
2019-03-30T01:41:38.134Z,8.92
2019-03-30T01:44:10.393Z,8.88
2019-03-30T01:46:42.733Z,8.75
2019-03-30T01:49:14.987Z,8.81
2019-03-30T01:51:47.251Z,8.85
2019-03-30T01:54:19.519Z,8.78
2019-03-30T01:56:51.798Z,8.73
2019-03-30T01:59:24.050Z,8.77
2019-03-30T02:01:56.304Z,8.58
2019-03-30T02:04:28.686Z,8.49
2019-03-30T02:07:00.955Z,8.31
2019-03-30T02:09:33.216Z,8.20
2019-03-30T02:12:06.206Z,8.25
2019-03-30T02:14:38.470Z,8.24
2019-03-30T02:17:10.854Z,8.28
2019-03-30T02:19:43.164Z,8.35
2019-03-30T02:22:15.453Z,8.37
2019-03-30T02:24:47.746Z,8.45
2019-03-30T02:27:19.992Z,8.38
2019-03-30T02:29:52.246Z,8.31
2019-03-30T02:32:24.507Z,8.18
2019-03-30T02:34:56.755Z,8.21
2019-03-30T02:37:29.034Z,7.94
2019-03-30T02:40:03.132Z,7.73
2019-03-30T02:42:35.376Z,7.74
2019-03-30T02:45:08.670Z,7.76
2019-03-30T02:47:41.080Z,7.75
2019-03-30T02:50:13.348Z,7.78
2019-03-30T02:52:45.661Z,7.86
2019-03-30T02:55:18.354Z,7.84
2019-03-30T02:57:50.611Z,7.97
2019-03-30T03:00:22.893Z,7.84
2019-03-30T03:02:55.395Z,7.69
2019-03-30T03:05:27.646Z,7.61
2019-03-30T03:07:59.935Z,7.62
2019-03-30T03:10:32.178Z,7.58
2019-03-30T03:13:04.980Z,7.53
2019-03-30T03:15:37.260Z,7.68
2019-03-30T03:18:09.714Z,7.76
2019-03-30T03:20:42.117Z,7.79
2019-03-30T03:23:14.371Z,7.67
2019-03-30T03:25:46.636Z,7.45
2019-03-30T03:28:18.886Z,7.34
2019-03-30T03:30:51.162Z,7.43
2019-03-30T03:33:23.401Z,7.56
2019-03-30T03:35:55.665Z,7.43
2019-03-30T03:38:28.282Z,7.53
2019-03-30T03:41:00.543Z,7.44
2019-03-30T03:43:34.462Z,7.26
2019-03-30T03:46:06.713Z,7.03
2019-03-30T03:48:40.147Z,6.91
2019-03-30T03:51:25.889Z,6.85
2019-03-30T03:53:47.795Z,6.97
2019-03-30T03:56:21.194Z,6.94
2019-03-30T03:58:53.458Z,6.94
2019-03-30T04:01:25.702Z,7.20
2019-03-30T04:03:58.028Z,7.10
2019-03-30T04:06:30.313Z,6.94
2019-03-30T04:09:04.869Z,6.93
2019-03-30T04:11:38.952Z,7.27
2019-03-30T04:14:11.802Z,7.17
2019-03-30T04:16:44.202Z,7.24
2019-03-30T04:19:16.506Z,6.98
2019-03-30T04:21:49.261Z,6.82
2019-03-30T04:24:21.566Z,6.60
2019-03-30T04:26:53.871Z,6.62
2019-03-30T04:29:26.124Z,6.64
2019-03-30T04:31:58.403Z,6.48
2019-03-30T04:34:31.774Z,6.50
2019-03-30T04:37:04.040Z,6.42
2019-03-30T04:39:36.342Z,6.48
2019-03-30T04:42:08.639Z,6.45
2019-03-30T04:44:40.934Z,6.60
2019-03-30T04:47:13.187Z,6.60
2019-03-30T04:49:45.491Z,6.55
2019-03-30T04:52:17.732Z,6.68
2019-03-30T04:54:50.034Z,6.75
2019-03-30T04:57:22.280Z,6.82
2019-03-30T04:59:54.660Z,6.88
2019-03-30T05:02:26.972Z,6.84
2019-03-30T05:04:59.221Z,6.91
2019-03-30T05:07:31.678Z,6.66
2019-03-30T05:10:05.722Z,6.69
2019-03-30T05:12:38.063Z,6.55
2019-03-30T05:15:10.359Z,6.38
2019-03-30T05:17:47.463Z,6.45
2019-03-30T05:20:16.612Z,6.49
2019-03-30T05:22:51.344Z,6.44
2019-03-30T05:25:22.974Z,6.32
2019-03-30T05:27:55.275Z,6.34
2019-03-30T05:30:27.575Z,6.03
2019-03-30T05:33:05.899Z,6.04
2019-03-30T05:35:33.849Z,5.92
2019-03-30T05:38:06.551Z,5.99
2019-03-30T05:40:38.852Z,5.93
2019-03-30T05:43:11.309Z,5.92
2019-03-30T05:45:43.625Z,6.04
2019-03-30T05:48:16.242Z,6.14
2019-03-30T05:50:48.707Z,6.17
2019-03-30T05:53:20.961Z,6.29
2019-03-30T05:55:53.265Z,6.22
2019-03-30T05:58:25.511Z,6.16
2019-03-30T06:00:57.828Z,6.06
2019-03-30T06:03:30.090Z,6.08
2019-03-30T06:06:02.347Z,6.20
2019-03-30T06:08:34.636Z,6.07
2019-03-30T06:11:07.139Z,6.07
2019-03-30T06:13:39.388Z,6.06
2019-03-30T06:16:11.678Z,6.23
2019-03-30T06:18:44.027Z,6.36
2019-03-30T06:21:16.277Z,6.16
2019-03-30T06:23:49.151Z,6.10
2019-03-30T06:26:21.427Z,6.12
2019-03-30T06:28:55.032Z,6.21
2019-03-30T06:31:27.344Z,6.10
2019-03-30T06:33:59.656Z,6.02
2019-03-30T06:36:31.968Z,6.20
2019-03-30T06:39:05.476Z,6.26
2019-03-30T06:41:37.735Z,6.39
2019-03-30T06:44:10.025Z,6.42
2019-03-30T06:46:42.408Z,6.42
2019-03-30T06:49:14.671Z,6.34
2019-03-30T06:51:46.967Z,6.44
2019-03-30T06:54:19.267Z,6.39
2019-03-30T06:56:51.595Z,6.54
2019-03-30T06:59:23.843Z,6.63
2019-03-30T07:01:56.177Z,6.68
2019-03-30T07:04:28.468Z,6.57
2019-03-30T07:07:00.861Z,6.55
2019-03-30T07:09:33.322Z,6.60
2019-03-30T07:12:05.592Z,6.52
2019-03-30T07:14:37.854Z,6.68
2019-03-30T07:17:11.830Z,6.73
2019-03-30T07:19:45.526Z,6.81
2019-03-30T07:22:17.823Z,6.87
2019-03-30T07:24:50.141Z,6.99
2019-03-30T07:27:22.400Z,7.18
2019-03-30T07:29:54.694Z,7.38
2019-03-30T07:32:26.963Z,7.44
2019-03-30T07:34:59.215Z,7.63
2019-03-30T07:37:31.764Z,7.93
2019-03-30T07:40:04.513Z,8.07
2019-03-30T07:42:36.789Z,8.24
2019-03-30T07:45:09.156Z,8.48
2019-03-30T07:47:41.766Z,8.96
2019-03-30T07:50:14.042Z,10.15
2019-03-30T07:52:46.296Z,11.28
2019-03-30T07:55:18.610Z,12.43
2019-03-30T07:57:50.966Z,12.96
2019-03-30T08:00:25.892Z,13.42
2019-03-30T08:02:57.462Z,13.90
2019-03-30T08:05:29.739Z,14.37
2019-03-30T08:08:02.072Z,14.68
2019-03-30T08:10:34.486Z,15.33
2019-03-30T08:13:06.818Z,15.10
2019-03-30T08:15:39.078Z,16.15
2019-03-30T08:18:11.372Z,16.21
2019-03-30T08:20:43.689Z,16.32
2019-03-30T08:23:15.944Z,16.55
2019-03-30T08:25:48.196Z,16.74
2019-03-30T08:28:20.991Z,17.28
2019-03-30T08:30:53.375Z,17.64
2019-03-30T08:33:25.696Z,18.08
2019-03-30T08:35:57.984Z,18.03
2019-03-30T08:38:30.306Z,18.04
2019-03-30T08:41:04.587Z,18.61
2019-03-30T08:43:37.751Z,18.67
2019-03-30T08:46:10.021Z,19.33
2019-03-30T08:48:42.286Z,19.84
2019-03-30T08:51:14.546Z,19.82
2019-03-30T08:53:54.569Z,19.99
2019-03-30T08:56:20.807Z,20.21
2019-03-30T08:58:53.108Z,19.53
2019-03-30T09:01:25.615Z,20.25
2019-03-30T09:03:57.872Z,21.10
2019-03-30T09:06:30.140Z,21.04
2019-03-30T09:09:02.529Z,21.46
2019-03-30T09:11:36.036Z,21.72
2019-03-30T09:14:08.295Z,22.24
2019-03-30T09:16:40.590Z,21.95
2019-03-30T09:19:14.041Z,22.42
2019-03-30T09:21:46.356Z,22.04
2019-03-30T09:24:18.709Z,21.52
2019-03-30T09:26:51.085Z,21.85
2019-03-30T09:29:23.395Z,22.14
2019-03-30T09:31:55.926Z,22.53
2019-03-30T09:34:28.205Z,22.71
2019-03-30T09:37:01.009Z,22.78
2019-03-30T09:39:33.315Z,22.85
2019-03-30T09:42:05.859Z,23.28
2019-03-30T09:44:38.193Z,24.14
2019-03-30T09:47:10.594Z,23.74
2019-03-30T09:49:42.884Z,23.91
2019-03-30T09:52:15.156Z,24.23
2019-03-30T09:54:47.460Z,24.23
2019-03-30T09:57:20.867Z,24.64
2019-03-30T09:59:53.424Z,23.94
2019-03-30T10:02:25.705Z,25.27
2019-03-30T10:04:57.963Z,23.66
2019-03-30T10:07:30.262Z,23.85
2019-03-30T10:10:02.527Z,23.80
2019-03-30T10:12:34.782Z,24.59
2019-03-30T10:15:07.378Z,24.78
2019-03-30T10:17:39.790Z,24.58
2019-03-30T10:20:12.037Z,25.17
2019-03-30T10:22:44.339Z,25.18
2019-03-30T10:25:16.646Z,25.84
2019-03-30T10:27:50.520Z,26.03
2019-03-30T10:30:23.121Z,26.86
2019-03-30T10:32:55.383Z,26.68
2019-03-30T10:35:27.700Z,26.60
2019-03-30T10:37:59.958Z,27.74
2019-03-30T10:40:32.404Z,26.22
2019-03-30T10:43:06.176Z,26.88
2019-03-30T10:45:38.493Z,27.48
2019-03-30T10:48:10.755Z,27.56
2019-03-30T10:50:43.074Z,28.13
2019-03-30T10:53:16.430Z,28.46
2019-03-30T10:55:48.705Z,28.39
2019-03-30T10:58:20.978Z,28.87
2019-03-30T11:00:53.239Z,28.77
2019-03-30T11:03:25.490Z,28.07
2019-03-30T11:05:57.745Z,28.67
2019-03-30T11:08:30.011Z,29.28
2019-03-30T11:11:02.409Z,28.00
2019-03-30T11:13:34.666Z,28.44
2019-03-30T11:16:08.984Z,28.42
2019-03-30T11:18:42.453Z,29.10
2019-03-30T11:21:14.704Z,29.73
2019-03-30T11:23:46.992Z,29.88
2019-03-30T11:26:19.669Z,29.58
2019-03-30T11:28:52.230Z,29.28
2019-03-30T11:31:24.608Z,29.63
2019-03-30T11:33:56.913Z,29.63
2019-03-30T11:36:29.158Z,28.61
2019-03-30T11:39:01.415Z,27.91
2019-03-30T11:41:34.453Z,27.20
2019-03-30T11:44:06.710Z,27.59
2019-03-30T11:46:38.988Z,29.22
2019-03-30T11:49:11.360Z,28.68
2019-03-30T11:51:43.662Z,27.81
2019-03-30T11:54:16.155Z,26.98
2019-03-30T11:56:48.424Z,27.59
2019-03-30T11:59:20.675Z,27.84
2019-03-30T12:01:53.038Z,29.10
2019-03-30T12:04:25.360Z,27.90
2019-03-30T12:06:57.819Z,29.31
2019-03-30T12:09:30.273Z,29.24
2019-03-30T12:12:02.529Z,27.18
2019-03-30T12:14:34.818Z,28.71
2019-03-30T12:17:08.956Z,29.10
2019-03-30T12:19:41.267Z,28.84
2019-03-30T12:22:14.819Z,29.10
2019-03-30T12:24:47.522Z,29.41
2019-03-30T12:27:19.836Z,29.41
2019-03-30T12:29:52.110Z,27.81
2019-03-30T12:32:24.381Z,27.35
2019-03-30T12:34:56.752Z,27.34
2019-03-30T12:37:30.007Z,27.36
2019-03-30T12:40:02.245Z,26.94
2019-03-30T12:42:34.483Z,26.97
2019-03-30T12:45:06.762Z,26.74
2019-03-30T12:47:38.998Z,26.21
2019-03-30T12:50:11.654Z,25.63
2019-03-30T12:52:43.927Z,25.40
2019-03-30T12:55:16.221Z,25.33
2019-03-30T12:57:48.466Z,25.49
2019-03-30T13:00:22.791Z,25.57
2019-03-30T13:02:55.052Z,25.31
2019-03-30T13:05:27.344Z,25.33
2019-03-30T13:07:59.681Z,25.16
2019-03-30T13:10:31.972Z,25.12
2019-03-30T13:13:04.205Z,25.84
2019-03-30T13:15:36.561Z,25.48
2019-03-30T13:18:09.220Z,24.93
2019-03-30T13:20:41.495Z,25.29
2019-03-30T13:23:13.770Z,24.79
2019-03-30T13:25:46.103Z,24.39
2019-03-30T13:28:18.960Z,24.63
2019-03-30T13:30:51.193Z,25.08
2019-03-30T13:33:23.458Z,25.31
2019-03-30T13:35:55.691Z,24.59
2019-03-30T13:38:27.930Z,24.35
2019-03-30T13:41:00.168Z,24.26
2019-03-30T13:43:32.406Z,24.62
2019-03-30T13:46:04.651Z,24.80
2019-03-30T13:48:36.904Z,24.64
2019-03-30T13:51:09.836Z,24.85
2019-03-30T13:53:42.142Z,25.14
2019-03-30T13:56:17.444Z,25.08
2019-03-30T13:58:48.446Z,24.95
2019-03-30T14:01:20.783Z,24.68
2019-03-30T14:03:53.092Z,24.52
2019-03-30T14:06:25.330Z,24.65
2019-03-30T14:08:57.605Z,23.82
2019-03-30T14:11:29.846Z,23.82
2019-03-30T14:14:02.556Z,24.25
2019-03-30T14:16:34.820Z,24.23
2019-03-30T14:19:07.085Z,24.26
2019-03-30T14:21:39.327Z,23.98
2019-03-30T14:24:11.574Z,23.82
2019-03-30T14:26:43.864Z,23.98
2019-03-30T14:29:18.078Z,23.45
2019-03-30T14:31:50.333Z,23.09
2019-03-30T14:34:22.691Z,22.82
2019-03-30T14:36:54.940Z,22.67
2019-03-30T14:39:27.233Z,23.21
2019-03-30T14:41:59.568Z,23.47
2019-03-30T14:44:33.171Z,23.44
2019-03-30T14:47:05.413Z,23.75
2019-03-30T14:49:37.683Z,23.43
2019-03-30T14:52:09.923Z,23.00
2019-03-30T14:54:52.590Z,23.03
2019-03-30T14:57:16.597Z,23.07
2019-03-30T14:59:48.852Z,22.98
2019-03-30T15:02:21.517Z,22.98
2019-03-30T15:18:30.817Z,24.61
2019-03-30T15:21:03.189Z,24.56
2019-03-30T15:23:34.955Z,24.59
2019-03-30T15:26:07.191Z,24.50
2019-03-30T15:28:39.002Z,24.35
2019-03-30T15:31:12.452Z,24.55
2019-03-30T15:33:44.233Z,24.24
2019-03-30T15:36:16.017Z,24.41
2019-03-30T15:38:47.816Z,24.55
2019-03-30T15:41:19.574Z,24.52
2019-03-30T15:43:52.257Z,24.41
2019-03-30T15:46:24.091Z,24.27
2019-03-30T15:48:55.835Z,24.39
2019-03-30T15:51:27.826Z,24.38
2019-03-30T15:53:59.673Z,24.63
2019-03-30T15:56:32.182Z,24.19
2019-03-30T15:59:06.873Z,24.06
2019-03-30T16:01:38.869Z,23.89
2019-03-30T16:04:10.755Z,24.08
2019-03-30T16:06:42.774Z,24.03
2019-03-30T16:09:14.563Z,24.00
2019-03-30T16:11:46.289Z,24.02
2019-03-30T16:14:18.056Z,24.12
2019-03-30T16:16:49.796Z,24.04
2019-03-30T16:19:21.548Z,23.83
2019-03-30T16:21:53.261Z,23.70
2019-03-30T16:24:25.019Z,23.54
2019-03-30T16:26:57.107Z,23.44
2019-03-30T16:29:29.439Z,23.37
2019-03-30T16:32:01.449Z,23.39
2019-03-30T16:34:33.566Z,23.29
2019-03-30T16:37:05.583Z,23.18
2019-03-30T16:39:37.842Z,23.07
2019-03-30T16:42:09.845Z,23.17
2019-03-30T16:44:42.501Z,23.00
2019-03-30T16:47:14.432Z,22.62
2019-03-30T16:49:46.674Z,22.73
2019-03-30T16:52:18.420Z,22.73
2019-03-30T16:54:50.193Z,22.52
2019-03-30T16:57:21.908Z,22.38
2019-03-30T16:59:53.715Z,22.38
2019-03-30T17:02:25.542Z,22.28
2019-03-30T17:04:57.641Z,21.93
2019-03-30T17:07:29.409Z,21.75
2019-03-30T17:10:02.048Z,21.75
2019-03-30T17:12:33.791Z,21.56
2019-03-30T17:15:06.084Z,21.68
2019-03-30T17:17:37.896Z,21.63
2019-03-30T17:20:09.619Z,21.52
2019-03-30T17:22:41.392Z,21.41
2019-03-30T17:25:13.225Z,21.34
2019-03-30T17:27:57.580Z,21.33
2019-03-30T17:30:18.494Z,21.17
2019-03-30T17:32:50.281Z,21.08
2019-03-30T17:35:22.027Z,20.91
2019-03-30T17:37:53.899Z,20.98
2019-03-30T17:40:25.981Z,21.01
2019-03-30T17:42:57.721Z,20.89
2019-03-30T17:45:29.673Z,20.68
2019-03-30T17:48:02.947Z,20.73
2019-03-30T17:50:35.120Z,20.69
2019-03-30T17:53:07.427Z,20.72
2019-03-30T17:55:39.660Z,20.63
2019-03-30T17:58:13.221Z,20.40
2019-03-30T18:00:45.180Z,20.40
2019-03-30T18:03:16.950Z,20.30
2019-03-30T18:05:48.755Z,20.30
2019-03-30T18:08:20.524Z,20.19
2019-03-30T18:10:52.345Z,20.12
2019-03-30T18:13:24.247Z,20.21
2019-03-30T18:15:56.036Z,20.11
2019-03-30T18:18:27.737Z,20.03
2019-03-30T18:20:59.511Z,20.03
2019-03-30T18:23:31.332Z,20.08
2019-03-30T18:26:03.126Z,19.99
2019-03-30T18:28:34.843Z,20.03
2019-03-30T18:31:06.691Z,19.83
2019-03-30T18:33:38.467Z,19.76
2019-03-30T18:36:10.702Z,19.68
2019-03-30T18:38:42.593Z,19.59
2019-03-30T18:41:14.374Z,19.42
2019-03-30T18:43:46.115Z,19.42
2019-03-30T18:46:17.900Z,19.31
2019-03-30T18:48:49.710Z,19.22
2019-03-30T18:51:21.877Z,19.08
2019-03-30T18:53:53.997Z,18.95
2019-03-30T18:56:27.916Z,18.89
2019-03-30T18:58:59.571Z,18.80
2019-03-30T19:01:31.720Z,18.73
2019-03-30T19:04:03.490Z,18.65
2019-03-30T19:06:35.213Z,18.56
2019-03-30T19:09:08.505Z,18.54
2019-03-30T19:11:40.555Z,18.46
2019-03-30T19:14:12.293Z,18.33
2019-03-30T19:16:44.490Z,18.22
2019-03-30T19:19:16.222Z,18.09
2019-03-30T19:21:48.032Z,17.96
2019-03-30T19:24:19.839Z,17.91
2019-03-30T19:26:51.904Z,17.72
2019-03-30T19:29:23.796Z,17.60
2019-03-30T19:31:56.022Z,17.43
2019-03-30T19:34:28.344Z,17.32
2019-03-30T19:37:00.644Z,17.28
2019-03-30T19:39:33.544Z,17.26
2019-03-30T19:42:05.367Z,17.26
2019-03-30T19:44:37.666Z,17.18
2019-03-30T19:47:09.481Z,17.02
2019-03-30T19:49:41.779Z,16.97
2019-03-30T19:52:13.539Z,16.97
2019-03-30T19:54:45.345Z,16.84
2019-03-30T19:57:17.177Z,16.71
2019-03-30T19:59:48.975Z,16.49
2019-03-30T20:02:20.803Z,16.47
2019-03-30T20:04:52.556Z,16.45
2019-03-30T20:07:24.499Z,16.49
2019-03-30T20:09:56.360Z,16.46
2019-03-30T20:12:28.214Z,16.42
2019-03-30T20:15:00.183Z,16.26
2019-03-30T20:17:32.485Z,16.08
2019-03-30T20:20:04.753Z,15.89
2019-03-30T20:22:36.581Z,16.02
2019-03-30T20:25:09.959Z,15.97
2019-03-30T20:27:41.797Z,16.01
2019-03-30T20:30:13.648Z,15.83
2019-03-30T20:32:45.470Z,15.71
2019-03-30T20:35:17.265Z,15.83
2019-03-30T20:37:49.054Z,15.83
2019-03-30T20:40:20.860Z,15.78
2019-03-30T20:42:52.872Z,15.76
2019-03-30T20:45:24.698Z,15.81
2019-03-30T20:47:57.081Z,15.77
2019-03-30T20:50:29.322Z,15.48
2019-03-30T20:53:01.198Z,15.20
2019-03-30T20:55:34.072Z,15.33
2019-03-30T20:58:05.914Z,15.33
2019-03-30T21:00:37.874Z,15.37
2019-03-30T21:03:09.709Z,15.42
2019-03-30T21:05:41.623Z,15.31
2019-03-30T21:08:13.708Z,15.29
2019-03-30T21:10:45.489Z,15.28
2019-03-30T21:13:17.311Z,15.38
2019-03-30T21:15:49.157Z,15.41
2019-03-30T21:18:20.975Z,15.45
2019-03-30T21:20:52.752Z,15.39
2019-03-30T21:23:24.550Z,15.39
2019-03-30T21:25:56.341Z,15.29
2019-03-30T21:28:28.379Z,15.21
2019-03-30T21:31:00.234Z,15.04
2019-03-30T21:33:32.456Z,15.25
2019-03-30T21:36:04.265Z,15.27
2019-03-30T21:38:36.112Z,15.35
2019-03-30T21:41:07.959Z,15.18
2019-03-30T21:43:39.803Z,15.08
2019-03-30T21:46:13.294Z,15.14
2019-03-30T21:48:45.311Z,15.23
2019-03-30T21:51:17.284Z,15.27
2019-03-30T21:53:50.191Z,15.07
2019-03-30T21:56:22.040Z,15.00
2019-03-30T21:58:53.871Z,15.00
2019-03-30T22:01:25.711Z,15.06
2019-03-30T22:03:58.795Z,14.89
2019-03-30T22:06:30.609Z,14.83
2019-03-30T22:09:05.772Z,14.70
2019-03-30T22:11:37.930Z,14.51
2019-03-30T22:14:09.784Z,14.32
2019-03-30T22:16:41.669Z,14.32
2019-03-30T22:19:13.458Z,14.32
2019-03-30T22:21:45.300Z,14.39
2019-03-30T22:24:17.095Z,14.32
2019-03-30T22:26:48.848Z,14.21
2019-03-30T22:29:20.604Z,14.14
2019-03-30T22:31:52.418Z,14.13
2019-03-30T22:34:24.221Z,14.09
2019-03-30T22:36:55.972Z,14.05
2019-03-30T22:39:28.204Z,14.10
2019-03-30T22:42:00.061Z,14.26
2019-03-30T22:44:32.920Z,14.24
2019-03-30T22:47:05.930Z,14.08
2019-03-30T22:49:38.118Z,14.16
2019-03-30T22:52:09.937Z,14.19
2019-03-30T22:54:41.736Z,14.03
2019-03-30T22:57:13.570Z,14.00
2019-03-30T22:59:45.726Z,13.93
2019-03-30T23:02:17.502Z,13.94
2019-03-30T23:04:49.293Z,13.91
2019-03-30T23:07:21.186Z,14.08
2019-03-30T23:09:52.909Z,14.11
2019-03-30T23:12:24.661Z,14.15
2019-03-30T23:14:57.929Z,14.19
2019-03-30T23:17:29.744Z,14.05
2019-03-30T23:20:02.562Z,13.95
2019-03-30T23:22:34.342Z,13.96
2019-03-30T23:25:06.284Z,13.97
2019-03-30T23:27:38.051Z,13.90
2019-03-30T23:30:09.872Z,13.79
2019-03-30T23:32:41.613Z,13.74
2019-03-30T23:35:13.543Z,13.82
2019-03-30T23:37:45.287Z,13.64
2019-03-30T23:40:17.018Z,13.61
2019-03-30T23:42:48.756Z,13.59
2019-03-30T23:45:20.678Z,13.62
2019-03-30T23:47:52.843Z,13.61
2019-03-30T23:50:24.586Z,13.24
2019-03-30T23:52:56.418Z,13.16
2019-03-30T23:55:28.163Z,13.24
2019-03-30T23:57:59.885Z,13.26
